createdAt,value
2023-11-15T00:04:49.116Z,2.60
2023-11-15T00:14:53.782Z,2.90
2023-11-15T00:24:57.087Z,2.40
2023-11-15T00:35:00.564Z,2.50
2023-11-15T00:45:06.435Z,2.90
2023-11-15T00:55:10.503Z,1.90
2023-11-15T01:05:14.763Z,1.50
2023-11-15T01:15:20.510Z,2.20
2023-11-15T01:25:23.777Z,2.10
2023-11-15T01:35:27.914Z,1.30
2023-11-15T01:45:32.705Z,1.50
2023-11-15T01:55:36.601Z,0.80
2023-11-15T02:05:40.255Z,0.90
2023-11-15T02:15:43.696Z,1.80
2023-11-15T02:25:47.753Z,1.30
2023-11-15T02:35:51.234Z,1.50
2023-11-15T02:45:54.677Z,1.30
2023-11-15T02:55:59.359Z,1.00
2023-11-15T03:06:05.430Z,1.10
2023-11-15T03:16:08.973Z,2.20
2023-11-15T03:26:12.826Z,1.50
2023-11-15T03:36:17.484Z,1.60
2023-11-15T03:46:21.287Z,1.80
2023-11-15T03:56:26.364Z,1.30
2023-11-15T04:06:29.926Z,1.60
2023-11-15T04:16:33.531Z,1.20
2023-11-15T04:26:39.077Z,1.40
2023-11-15T04:36:43.296Z,1.40
2023-11-15T04:46:47.767Z,1.10
2023-11-15T04:56:51.246Z,1.30
2023-11-15T05:06:55.901Z,1.20
2023-11-15T05:16:59.262Z,1.30
2023-11-15T05:27:03.130Z,1.00
2023-11-15T05:37:06.533Z,1.20
2023-11-15T05:47:09.803Z,1.60
2023-11-15T05:57:13.521Z,3.10
2023-11-15T06:07:18.126Z,2.60
2023-11-15T06:17:21.896Z,2.20
2023-11-15T06:27:25.228Z,1.10
2023-11-15T06:37:30.282Z,1.80
2023-11-15T06:47:33.893Z,2.00
2023-11-15T06:57:38.976Z,2.10
2023-11-15T07:07:42.560Z,1.00
2023-11-15T07:17:46.131Z,1.80
2023-11-15T07:27:51.180Z,1.20
2023-11-15T07:37:55.143Z,0.80
2023-11-15T07:47:58.963Z,0.80
2023-11-15T07:58:02.492Z,1.30
2023-11-15T08:08:07.912Z,2.30
2023-11-15T08:18:12.562Z,1.80
2023-11-15T08:28:15.886Z,2.50
2023-11-15T08:38:20.323Z,3.20
2023-11-15T08:48:24.716Z,2.60
2023-11-15T08:58:30.817Z,3.60
2023-11-15T09:08:34.875Z,1.90
2023-11-15T09:18:39.842Z,2.10
2023-11-15T09:28:43.412Z,1.70
2023-11-15T09:38:46.835Z,1.60
2023-11-15T09:48:59.890Z,0.90
2023-11-15T09:59:06.723Z,1.20
2023-11-15T10:09:10.587Z,1.00
2023-11-15T10:19:30.920Z,1.10
2023-11-15T10:29:38.651Z,0.90
2023-11-15T10:39:45.889Z,0.90
2023-11-15T10:50:01.866Z,1.10
2023-11-15T11:00:10.659Z,1.50
2023-11-15T11:10:27.890Z,1.20
2023-11-15T11:20:37.460Z,1.70
2023-11-15T11:30:42.228Z,2.20
2023-11-15T11:40:47.748Z,1.50
2023-11-15T11:50:56.095Z,1.40
2023-11-15T12:01:04.811Z,1.50
2023-11-15T12:11:09.556Z,1.20
2023-11-15T12:21:14.781Z,1.90
2023-11-15T12:31:18.322Z,1.40
2023-11-15T12:41:21.828Z,1.30
2023-11-15T12:51:25.889Z,2.00
2023-11-15T13:01:29.438Z,1.40
2023-11-15T13:11:33.087Z,1.10
2023-11-15T13:21:36.556Z,1.60
2023-11-15T13:31:40.078Z,1.90
2023-11-15T13:41:43.423Z,1.60
2023-11-15T13:51:47.410Z,2.20
2023-11-15T14:01:51.029Z,2.00
2023-11-15T14:11:56.096Z,2.00
2023-11-15T14:22:00.286Z,2.00
2023-11-15T14:32:04.440Z,2.70
2023-11-15T14:42:08.738Z,4.50
2023-11-15T14:52:12.401Z,3.10
2023-11-15T15:02:18.807Z,10.70
2023-11-15T15:12:24.499Z,4.60
2023-11-15T15:22:28.109Z,3.30
2023-11-15T15:32:31.894Z,5.00
2023-11-15T15:42:35.316Z,3.70
2023-11-15T15:52:39.283Z,4.90
2023-11-15T16:02:43.550Z,3.40
2023-11-15T16:12:49.037Z,2.70
2023-11-15T16:22:53.038Z,2.20
2023-11-15T16:32:57.114Z,6.40
2023-11-15T16:43:00.631Z,3.10
2023-11-15T16:53:04.045Z,4.30
2023-11-15T17:03:10.408Z,4.10
2023-11-15T17:13:14.308Z,4.80
2023-11-15T17:23:18.094Z,4.80
2023-11-15T17:33:21.463Z,4.50
2023-11-15T17:43:24.989Z,3.50
2023-11-15T17:53:28.499Z,2.90
2023-11-15T18:03:32.642Z,6.70
2023-11-15T18:13:36.552Z,3.70
2023-11-15T18:23:39.865Z,4.20
2023-11-15T18:33:43.835Z,4.00
2023-11-15T18:43:47.371Z,4.60
2023-11-15T18:53:51.319Z,4.00
2023-11-15T19:03:54.904Z,3.60
2023-11-15T19:13:59.239Z,4.20
2023-11-15T19:24:03.750Z,6.90
2023-11-15T19:34:13.608Z,8.50
2023-11-15T19:44:17.158Z,8.90
2023-11-15T19:54:22.464Z,5.20
2023-11-15T20:04:32.875Z,3.70
2023-11-15T20:14:36.405Z,4.10
2023-11-15T20:24:40.363Z,5.00
2023-11-15T20:34:43.908Z,4.50
2023-11-15T20:44:47.485Z,4.30
2023-11-15T20:54:52.132Z,3.50
2023-11-15T21:04:57.104Z,4.30
2023-11-15T21:15:04.912Z,5.00
2023-11-15T21:25:15.117Z,4.00
2023-11-15T21:35:19.603Z,4.50
2023-11-15T21:45:24.467Z,3.00
2023-11-15T21:55:27.934Z,3.10
2023-11-15T22:05:31.809Z,2.80
2023-11-15T22:15:35.522Z,3.10
2023-11-15T22:25:39.123Z,2.70
2023-11-15T22:35:49.708Z,3.00
2023-11-15T22:45:53.383Z,2.50
2023-11-15T22:55:56.690Z,3.00
2023-11-15T23:06:00.628Z,3.00
2023-11-15T23:16:04.661Z,3.20
2023-11-15T23:26:11.764Z,3.00
2023-11-15T23:36:16.819Z,4.40
2023-11-15T23:46:20.419Z,3.20
2023-11-15T23:56:23.737Z,3.50
